メインページ
METAR-TAF:

METAR-TAF

空港 :

アルトゥーロ・メリノ・ベニテス国際空港

サンティアゴ, チリ

緯度: 33-23S, 経度: 070-47W, 海抜: 475m

現時点の気象観測

当レポートは25分前の21:00(UTC)に作成
の風 8kt
気温 22°C
湿度 33%
気圧 1017 hPa
視程10km以上
1,500メートル以下は雲なし、積乱雲なし

METAR: SCEL 162100Z 17008KT CAVOK 22/05 Q1017 NOSIG

時間: 18:25 (21:25 UTC)

予報

当レポートは4時間59分前の16:26(UTC)に作成
予報は16日の 18時(UTC)から 17日の 18時(UTC)まで有効
南/南西の風 8kt
視程10km以上
1,500メートル以下は雲なし、積乱雲なし
17日の 02時(UTC)から 17日の 04時(UTC)まで徐々に
南/南東の風 4kt
視程: 8000m
17日の 08時(UTC)から 17日の 14時(UTC)まで一時的に
変向風 2kt
視程: 4000m
17日の 16時(UTC)から 17日の 18時(UTC)まで徐々に
の風 7kt
高度18000ftの千切れ雲あり

TAF: SCEL 161626Z 1618/1718 20008KT CAVOK TX24/1619Z TN05/1711Z BECMG 1702/1704 16004KT 8000 NSC TEMPO 1708/1714 VRB02KT 4000 BR NSC BECMG 1716/1718 18007KT BKN180

4,000以上の空港の気象観測と天気予報(METAR報とTAF報)

利用可能な観測所は地図上に黄色い丸と赤い丸で示す。

丸の上にカーソルを重ねると観測所名を参照できる。

次にクリックすると気象観測と天気予報を参照できる。

マップの切り替え:黒色「×」印の緑ボタンをクリックして拡大、「-」印の緑ボタンをクリックして縮小、緑色の三角印をクリックして隣りの地図に切り替え


METAR-TAF: